createdAt,value
2023-03-22T00:01:17.305Z,51.60
2023-03-22T00:03:45.007Z,51.96
2023-03-22T00:06:12.608Z,51.74
2023-03-22T00:08:40.324Z,51.54
2023-03-22T00:11:07.963Z,51.36
2023-03-22T00:13:35.799Z,51.38
2023-03-22T00:16:04.453Z,51.24
2023-03-22T00:18:32.048Z,51.33
2023-03-22T00:20:59.456Z,51.68
2023-03-22T00:23:27.570Z,51.65
2023-03-22T00:25:55.260Z,51.88
2023-03-22T00:28:22.645Z,52.76
2023-03-22T00:30:58.232Z,52.57
2023-03-22T00:33:28.470Z,52.69
2023-03-22T00:36:06.765Z,52.46
2023-03-22T00:38:44.936Z,52.00
2023-03-22T00:41:14.697Z,52.24
2023-03-22T00:43:45.652Z,52.26
2023-03-22T00:46:13.322Z,52.52
2023-03-22T00:48:40.778Z,52.93
2023-03-22T00:51:08.685Z,53.74
2023-03-22T00:53:36.984Z,52.94
2023-03-22T00:56:05.577Z,52.98
2023-03-22T00:58:35.440Z,52.18
2023-03-22T01:01:02.863Z,52.84
2023-03-22T01:03:30.319Z,53.44
2023-03-22T01:05:58.043Z,53.90
2023-03-22T01:08:25.462Z,54.06
2023-03-22T01:10:53.667Z,53.64
2023-03-22T01:13:21.315Z,53.92
2023-03-22T01:15:50.897Z,53.94
2023-03-22T01:18:18.696Z,53.59
2023-03-22T01:20:46.336Z,54.70
2023-03-22T01:23:13.789Z,54.05
2023-03-22T01:25:41.223Z,54.24
2023-03-22T01:28:08.986Z,54.11
2023-03-22T01:30:36.969Z,54.02
2023-03-22T01:33:05.683Z,55.88
2023-03-22T01:35:34.387Z,54.45
2023-03-22T01:38:01.812Z,54.17
2023-03-22T01:40:29.260Z,56.31
2023-03-22T01:42:57.370Z,58.18
2023-03-22T01:45:36.415Z,56.45
2023-03-22T01:48:34.207Z,54.81
2023-03-22T01:51:07.806Z,55.40
2023-03-22T01:53:39.351Z,56.81
2023-03-22T01:56:07.737Z,55.63
2023-03-22T01:58:36.619Z,54.44
2023-03-22T02:01:05.451Z,55.21
2023-03-22T02:04:07.213Z,55.05
2023-03-22T02:06:38.106Z,54.94
2023-03-22T02:09:08.188Z,54.15
2023-03-22T02:11:42.855Z,53.84
2023-03-22T02:14:17.215Z,54.44
2023-03-22T02:17:04.491Z,54.31
2023-03-22T02:19:52.020Z,55.78
2023-03-22T02:22:53.282Z,55.69
2023-03-22T02:26:00.017Z,55.45
2023-03-22T02:29:08.184Z,54.89
2023-03-22T02:31:54.189Z,55.16
2023-03-22T02:34:46.200Z,56.89
2023-03-22T02:37:33.807Z,54.45
2023-03-22T02:40:12.876Z,55.48
2023-03-22T02:42:46.290Z,55.30
2023-03-22T02:45:15.496Z,55.21
2023-03-22T02:47:50.261Z,56.70
2023-03-22T02:50:28.720Z,56.57
2023-03-22T02:53:24.688Z,55.70
2023-03-22T02:56:02.754Z,56.55
2023-03-22T02:58:38.134Z,56.17
2023-03-22T03:01:07.643Z,56.84
2023-03-22T03:03:37.659Z,57.48
2023-03-22T03:06:13.612Z,57.57
2023-03-22T03:08:41.346Z,58.55
2023-03-22T03:11:09.366Z,56.99
2023-03-22T03:13:37.123Z,57.15
2023-03-22T03:16:07.848Z,55.89
2023-03-22T03:18:48.432Z,56.25
2023-03-22T03:22:14.602Z,57.61
2023-03-22T03:25:22.363Z,57.03
2023-03-22T03:27:52.268Z,57.68
2023-03-22T03:30:21.878Z,56.73
2023-03-22T03:32:54.650Z,57.56
2023-03-22T03:35:37.661Z,57.09
2023-03-22T03:38:18.680Z,56.24
2023-03-22T03:40:51.484Z,55.69
2023-03-22T03:43:18.882Z,55.25
2023-03-22T03:45:46.781Z,55.52
2023-03-22T03:48:19.277Z,55.77
2023-03-22T03:50:47.733Z,56.59
2023-03-22T03:53:15.066Z,57.65
2023-03-22T03:55:42.460Z,56.58
2023-03-22T03:58:10.222Z,56.64
2023-03-22T04:00:37.881Z,56.43
2023-03-22T04:03:07.748Z,55.71
2023-03-22T04:05:36.257Z,55.72
2023-03-22T04:08:03.694Z,55.12
2023-03-22T04:10:32.977Z,56.15
2023-03-22T04:13:00.413Z,55.96
2023-03-22T04:15:27.970Z,55.71
2023-03-22T04:17:56.109Z,58.33
2023-03-22T04:20:26.169Z,57.52
2023-03-22T04:22:53.577Z,57.08
2023-03-22T04:25:22.862Z,56.78
2023-03-22T04:27:51.636Z,56.63
2023-03-22T04:30:20.158Z,58.12
2023-03-22T04:32:53.134Z,58.30
2023-03-22T04:35:21.362Z,59.11
2023-03-22T04:37:49.386Z,57.61
2023-03-22T04:40:20.729Z,58.00
2023-03-22T04:42:48.260Z,57.53
2023-03-22T04:45:16.287Z,58.05
2023-03-22T04:47:44.338Z,57.53
2023-03-22T04:50:11.776Z,58.03
2023-03-22T04:52:40.584Z,58.22
2023-03-22T04:55:08.336Z,57.98
2023-03-22T04:57:36.208Z,59.37
2023-03-22T05:00:08.360Z,58.99
2023-03-22T05:02:41.170Z,57.07
2023-03-22T05:05:09.833Z,57.57
2023-03-22T05:07:39.230Z,57.90
2023-03-22T05:10:07.279Z,58.08
2023-03-22T05:12:35.120Z,58.33
2023-03-22T05:15:04.310Z,58.05
2023-03-22T05:17:33.132Z,57.99
2023-03-22T05:20:08.279Z,57.45
2023-03-22T05:22:40.619Z,57.25
2023-03-22T05:25:10.263Z,58.46
2023-03-22T05:27:39.002Z,58.82
2023-03-22T05:30:07.501Z,56.67
2023-03-22T05:32:37.598Z,56.42
2023-03-22T05:35:05.403Z,57.55
2023-03-22T05:37:33.306Z,57.30
2023-03-22T05:40:01.330Z,56.29
2023-03-22T05:42:30.684Z,57.66
2023-03-22T05:44:58.132Z,55.51
2023-03-22T05:47:25.901Z,56.37
2023-03-22T05:49:53.738Z,56.46
2023-03-22T05:52:23.126Z,54.41
2023-03-22T05:54:51.646Z,54.21
2023-03-22T05:57:19.064Z,53.28
2023-03-22T05:59:46.540Z,52.62
2023-03-22T06:02:17.156Z,53.78
2023-03-22T06:04:44.830Z,53.56
2023-03-22T06:07:12.887Z,53.22
2023-03-22T06:09:40.589Z,53.97
2023-03-22T06:12:08.836Z,54.16
2023-03-22T06:14:36.547Z,53.21
2023-03-22T06:17:05.218Z,52.81
2023-03-22T06:19:32.952Z,53.14
2023-03-22T06:22:01.808Z,53.12
2023-03-22T06:24:29.423Z,51.97
2023-03-22T06:26:57.178Z,51.65
2023-03-22T06:29:24.792Z,50.78
2023-03-22T06:31:52.724Z,51.63
2023-03-22T06:34:20.602Z,50.95
2023-03-22T06:36:48.543Z,51.44
2023-03-22T06:39:16.174Z,50.75
2023-03-22T06:41:44.018Z,50.74
2023-03-22T06:44:11.382Z,50.15
2023-03-22T06:46:39.535Z,49.70
2023-03-22T06:49:08.030Z,49.30
2023-03-22T06:51:35.621Z,49.12
2023-03-22T06:54:03.572Z,49.44
2023-03-22T06:56:31.385Z,49.04
2023-03-22T06:58:58.820Z,47.36
2023-03-22T07:01:26.574Z,47.49
2023-03-22T07:03:54.812Z,46.79
2023-03-22T07:06:22.334Z,46.62
2023-03-22T07:08:51.945Z,48.00
2023-03-22T07:11:19.897Z,47.36
2023-03-22T07:13:47.736Z,47.91
2023-03-22T07:16:16.349Z,47.36
2023-03-22T07:18:45.544Z,46.77
2023-03-22T07:21:12.899Z,46.44
2023-03-22T07:23:40.504Z,45.91
2023-03-22T07:26:09.135Z,47.41
2023-03-22T07:28:37.385Z,46.18
2023-03-22T07:31:07.185Z,45.22
2023-03-22T07:33:36.293Z,44.21
2023-03-22T07:36:04.725Z,43.37
2023-03-22T07:38:32.299Z,43.50
2023-03-22T07:41:00.269Z,42.70
2023-03-22T07:43:28.366Z,42.33
2023-03-22T07:45:56.963Z,42.13
2023-03-22T07:48:28.925Z,41.84
2023-03-22T07:50:56.707Z,41.26
2023-03-22T07:53:24.548Z,41.29
2023-03-22T07:55:52.544Z,41.67
2023-03-22T07:58:20.513Z,41.40
2023-03-22T08:00:49.754Z,42.45
2023-03-22T08:03:20.084Z,41.40
2023-03-22T08:05:48.795Z,42.51
2023-03-22T08:08:16.533Z,42.37
2023-03-22T08:10:49.277Z,42.31
2023-03-22T08:13:16.931Z,42.27
2023-03-22T08:15:44.428Z,42.54
2023-03-22T08:18:13.142Z,41.77
2023-03-22T08:20:41.347Z,41.68
2023-03-22T08:23:14.450Z,41.31
2023-03-22T08:25:43.593Z,41.60
2023-03-22T08:28:11.920Z,41.04
2023-03-22T08:30:39.772Z,40.28
2023-03-22T08:33:07.618Z,40.25
2023-03-22T08:35:35.071Z,40.40
2023-03-22T08:38:02.614Z,39.82
2023-03-22T08:40:31.474Z,38.95
2023-03-22T08:42:59.898Z,39.55
2023-03-22T08:45:28.965Z,39.29
2023-03-22T08:47:57.844Z,38.91
2023-03-22T08:50:25.731Z,38.71
2023-03-22T08:52:53.887Z,38.51
2023-03-22T08:55:22.175Z,39.52
2023-03-22T08:57:51.794Z,38.95
2023-03-22T09:00:19.743Z,38.85
2023-03-22T09:02:48.194Z,38.74
2023-03-22T09:05:15.716Z,38.68
2023-03-22T09:07:43.157Z,38.50
2023-03-22T09:10:11.329Z,38.98
2023-03-22T09:12:39.413Z,38.70
2023-03-22T09:15:07.590Z,38.80
2023-03-22T09:17:36.440Z,38.92
2023-03-22T09:20:12.509Z,39.16
2023-03-22T09:22:41.310Z,38.93
2023-03-22T09:25:12.077Z,39.20
2023-03-22T09:27:42.100Z,39.45
2023-03-22T09:30:11.257Z,39.48
2023-03-22T09:32:39.562Z,38.42
2023-03-22T09:35:07.351Z,39.13
2023-03-22T09:37:35.690Z,39.77
2023-03-22T09:40:05.679Z,39.02
2023-03-22T09:42:39.631Z,38.96
2023-03-22T09:45:12.781Z,38.91
2023-03-22T09:47:44.986Z,38.54
2023-03-22T09:50:32.052Z,39.07
2023-03-22T09:53:00.229Z,38.70
2023-03-22T09:55:37.823Z,38.82
2023-03-22T09:58:11.447Z,38.62
2023-03-22T10:00:44.169Z,39.63
2023-03-22T10:03:36.616Z,39.72
2023-03-22T10:06:10.267Z,39.88
2023-03-22T10:09:05.333Z,40.67
2023-03-22T10:11:46.121Z,40.99
2023-03-22T10:14:36.210Z,40.80
2023-03-22T10:17:06.245Z,42.14
2023-03-22T10:19:35.658Z,42.70
2023-03-22T10:22:03.964Z,41.82
2023-03-22T10:24:35.846Z,41.43
2023-03-22T10:27:03.491Z,41.62
2023-03-22T10:29:41.482Z,41.91
2023-03-22T10:32:17.051Z,41.97
2023-03-22T10:34:44.544Z,41.64
2023-03-22T10:37:17.402Z,41.47
2023-03-22T10:39:46.460Z,41.46
2023-03-22T10:42:16.812Z,41.36
2023-03-22T10:44:51.985Z,41.68
2023-03-22T10:47:24.796Z,41.52
2023-03-22T10:49:54.772Z,41.31
2023-03-22T10:52:34.837Z,40.82
2023-03-22T10:55:04.505Z,40.74
2023-03-22T10:57:32.341Z,41.21
2023-03-22T10:59:59.756Z,40.37
2023-03-22T11:02:29.216Z,40.26
2023-03-22T11:04:59.044Z,40.73
2023-03-22T11:07:43.440Z,40.57
2023-03-22T11:10:10.915Z,40.24
2023-03-22T11:12:44.103Z,40.31
2023-03-22T11:15:24.008Z,40.28
2023-03-22T11:17:51.401Z,41.33
2023-03-22T11:20:19.640Z,40.64
2023-03-22T11:22:48.043Z,40.09
2023-03-22T11:25:22.376Z,39.43
2023-03-22T11:28:17.598Z,39.25
2023-03-22T11:30:58.467Z,38.13
2023-03-22T11:33:26.154Z,37.89
2023-03-22T11:35:55.314Z,37.76
2023-03-22T11:38:29.862Z,38.11
2023-03-22T11:41:00.718Z,38.10
2023-03-22T11:43:33.016Z,38.42
2023-03-22T11:46:00.722Z,38.32
2023-03-22T11:48:29.597Z,37.84
2023-03-22T11:51:13.514Z,37.18
2023-03-22T11:53:46.470Z,37.15
2023-03-22T11:56:18.956Z,36.54
2023-03-22T11:59:11.595Z,37.22
2023-03-22T12:01:41.483Z,36.66
2023-03-22T12:04:13.804Z,36.19
2023-03-22T12:06:41.360Z,35.81
2023-03-22T12:09:19.260Z,35.85
2023-03-22T12:11:47.862Z,35.08
2023-03-22T12:14:22.505Z,35.11
2023-03-22T12:17:13.057Z,35.30
2023-03-22T12:19:52.331Z,35.53
2023-03-22T12:22:22.927Z,35.10
2023-03-22T12:24:50.526Z,34.20
2023-03-22T12:27:19.099Z,33.93
2023-03-22T12:30:04.269Z,33.59
2023-03-22T12:32:42.096Z,34.68
2023-03-22T12:35:17.656Z,34.91
2023-03-22T12:37:51.798Z,34.66
2023-03-22T12:40:22.986Z,35.17
2023-03-22T12:42:56.671Z,34.19
2023-03-22T12:45:27.392Z,33.38
2023-03-22T12:48:06.279Z,33.19
2023-03-22T12:50:36.483Z,33.50
2023-03-22T12:53:04.502Z,32.70
2023-03-22T12:55:35.897Z,32.50
2023-03-22T12:58:06.140Z,33.04
2023-03-22T13:00:40.954Z,33.54
2023-03-22T13:03:21.008Z,33.30
2023-03-22T13:05:50.245Z,34.23
2023-03-22T13:08:21.568Z,35.35
2023-03-22T13:10:58.020Z,34.57
2023-03-22T13:13:25.490Z,34.28
2023-03-22T13:16:08.368Z,34.21
2023-03-22T13:18:35.694Z,34.15
2023-03-22T13:21:13.042Z,34.15
2023-03-22T13:24:05.308Z,33.91
2023-03-22T13:26:54.490Z,34.33
2023-03-22T13:29:26.628Z,34.20
2023-03-22T13:31:57.552Z,35.19
2023-03-22T13:34:48.402Z,34.19
2023-03-22T13:37:37.207Z,34.26
2023-03-22T13:40:14.977Z,34.03
2023-03-22T13:42:42.620Z,33.72
2023-03-22T13:45:31.467Z,33.47
2023-03-22T13:48:12.827Z,33.73
2023-03-22T13:50:40.602Z,34.16
2023-03-22T13:53:15.753Z,33.55
2023-03-22T13:55:46.154Z,34.88
2023-03-22T13:58:36.575Z,34.57
2023-03-22T14:01:14.951Z,34.88
2023-03-22T14:03:43.059Z,35.43
2023-03-22T14:06:20.968Z,34.76
2023-03-22T14:08:49.770Z,35.18
2023-03-22T14:11:21.212Z,35.77
2023-03-22T14:13:51.397Z,34.99
2023-03-22T14:16:34.112Z,34.97
2023-03-22T14:19:02.131Z,34.37
2023-03-22T14:21:39.247Z,33.79
